METAR

ENBN 230720Z 36005KT 330V050 9999 -RA FEW004 BKN006 15/14 Q1013

ENMS 230720Z 33007KT 280V010 9999 4000W -RA FEW015 BKN028 18/15 Q1011 RMK WIND 412FT 26006KT

ENNM 230720Z VRB02KT 9999 -RA FEW005 BKN009 14/13 Q1013

ENOL 230720Z 32008KT 9999 FEW005 SCT008 BKN020 14/12 Q1014 TEMPO 2000 RADZ BR BKN005

ENST 230720Z 27005KT 220V300 9999 -RA FEW003 SCT005 BKN008 15/14 Q1013 RMK WIND 300FT 29004KT

ENVA 230720Z 30010KT 6000 RA SCT005 OVC008 14/13 Q1013 TEMPO 4000 RA BR SCT007 BKN014 RMK WIND 670FT 31014KT



TAF

TAF ENVA 230500Z 2306/2406 26010KT 9000 -RA SCT009 BKN014 TEMPO 2306/2315 4000 RA BR BKN009 BECMG 2315/2317 VRB03KT SCT012 BKN025